Terminal Aerodrome Forecast
Issued by NWS

Home | Current Version | Previous Version | Text Only | Print | Product List | Glossary Off
Versions: 1 2 3 4 5 6 7 8 9 10 11 12 13 14 15 16 17 18

000
FTUS43 KICT 271359 AAA
TAFCNU
TAF AMD
KCNU 271359Z 2714/2812 21014G22KT P6SM BKN015
     FM271600 23014G22KT P6SM VCSH SCT015 BKN030
     FM272100 26014G22KT P6SM SCT100=

USA.gov is the U.S. government's official web portal to all federal, state and local government web resources and services.